Kenton, Oklahoma
Current Conditions -  °F | °C
As of 11:55 PM on Thursday 30 Oct 2014 (Local Time) from KCAO Reporting Station
Clear Clear  
Wind Chill: 42°   Ceiling: Unl
Heat Index: 46°   Visibility: 10mi
Dew Point: 25°   Wind: 7mph
Humidity: 44%   Direction: 20°NNE
Pressure: 30.42"   Gusts: NA
Location:  36.9°N, 102.96°W
Report Text: KCAO 310455Z AUTO 02006KT 10SM CLR 08/M04 A3042 RMK AO2 SLP269 T00781039
Loading
Personal Weather Stations






























Interactive Weather Map
Tropical Storm Tracking
New forecast layout! Learn more

10-Day Weather Forecast

Advertisements
Track Severe Weather on mobile